sensor_id;sensor_type;location;lat;lon;timestamp;temperature;humidity
210;DHT22;90;48.810;9.120;2023-11-21T00:00:45;9.60;90.20
210;DHT22;90;48.810;9.120;2023-11-21T00:03:11;9.60;90.20
210;DHT22;90;48.810;9.120;2023-11-21T00:05:40;9.60;90.30
210;DHT22;90;48.810;9.120;2023-11-21T00:08:07;9.60;90.30
210;DHT22;90;48.810;9.120;2023-11-21T00:10:36;9.60;90.20
210;DHT22;90;48.810;9.120;2023-11-21T00:13:04;9.60;90.50
210;DHT22;90;48.810;9.120;2023-11-21T00:15:31;9.60;90.70
210;DHT22;90;48.810;9.120;2023-11-21T00:17:57;9.60;90.80
210;DHT22;90;48.810;9.120;2023-11-21T00:20:24;9.60;90.70
210;DHT22;90;48.810;9.120;2023-11-21T00:22:51;9.50;90.70
210;DHT22;90;48.810;9.120;2023-11-21T00:25:17;9.50;90.80
210;DHT22;90;48.810;9.120;2023-11-21T00:27:46;9.50;91.10
210;DHT22;90;48.810;9.120;2023-11-21T00:30:14;9.50;91.20
210;DHT22;90;48.810;9.120;2023-11-21T00:32:41;9.50;91.10
210;DHT22;90;48.810;9.120;2023-11-21T00:35:08;9.50;91.30
210;DHT22;90;48.810;9.120;2023-11-21T00:37:35;9.50;91.40
210;DHT22;90;48.810;9.120;2023-11-21T00:40:05;9.50;91.70
210;DHT22;90;48.810;9.120;2023-11-21T00:42:33;9.60;91.90
210;DHT22;90;48.810;9.120;2023-11-21T00:45:01;9.50;91.40
210;DHT22;90;48.810;9.120;2023-11-21T00:47:29;9.50;91.60
210;DHT22;90;48.810;9.120;2023-11-21T00:49:55;9.60;91.80
210;DHT22;90;48.810;9.120;2023-11-21T00:52:22;9.50;92.00
210;DHT22;90;48.810;9.120;2023-11-21T00:54:49;9.50;92.10
210;DHT22;90;48.810;9.120;2023-11-21T00:57:15;9.50;92.30
210;DHT22;90;48.810;9.120;2023-11-21T00:59:42;9.40;92.40
210;DHT22;90;48.810;9.120;2023-11-21T01:02:10;9.50;92.50
210;DHT22;90;48.810;9.120;2023-11-21T01:04:37;9.60;92.20
210;DHT22;90;48.810;9.120;2023-11-21T01:07:04;9.60;91.90
210;DHT22;90;48.810;9.120;2023-11-21T01:09:32;9.70;91.70
210;DHT22;90;48.810;9.120;2023-11-21T01:11:58;9.70;91.60
210;DHT22;90;48.810;9.120;2023-11-21T01:14:26;9.70;91.40
210;DHT22;90;48.810;9.120;2023-11-21T01:16:54;9.70;91.60
210;DHT22;90;48.810;9.120;2023-11-21T01:19:22;9.60;91.70
210;DHT22;90;48.810;9.120;2023-11-21T01:21:49;9.60;92.20
210;DHT22;90;48.810;9.120;2023-11-21T01:24:15;9.60;92.40
210;DHT22;90;48.810;9.120;2023-11-21T01:26:42;9.60;92.30
210;DHT22;90;48.810;9.120;2023-11-21T01:29:11;9.60;92.30
210;DHT22;90;48.810;9.120;2023-11-21T01:31:37;9.60;92.10
210;DHT22;90;48.810;9.120;2023-11-21T01:34:04;9.60;92.30
210;DHT22;90;48.810;9.120;2023-11-21T01:36:32;9.50;92.40
210;DHT22;90;48.810;9.120;2023-11-21T01:38:59;9.60;92.40
210;DHT22;90;48.810;9.120;2023-11-21T01:41:26;9.50;92.40
210;DHT22;90;48.810;9.120;2023-11-21T01:43:54;9.50;92.40
210;DHT22;90;48.810;9.120;2023-11-21T01:46:21;9.50;92.50
210;DHT22;90;48.810;9.120;2023-11-21T01:48:48;9.40;92.90
210;DHT22;90;48.810;9.120;2023-11-21T01:51:16;9.50;92.60
210;DHT22;90;48.810;9.120;2023-11-21T01:53:44;9.50;92.60
210;DHT22;90;48.810;9.120;2023-11-21T01:56:12;9.50;92.50
210;DHT22;90;48.810;9.120;2023-11-21T01:58:39;9.40;92.40
210;DHT22;90;48.810;9.120;2023-11-21T02:01:06;9.40;92.60
210;DHT22;90;48.810;9.120;2023-11-21T02:03:35;9.40;92.90
210;DHT22;90;48.810;9.120;2023-11-21T02:06:02;9.40;92.90
210;DHT22;90;48.810;9.120;2023-11-21T02:08:28;9.50;92.90
210;DHT22;90;48.810;9.120;2023-11-21T02:10:56;9.50;92.90
210;DHT22;90;48.810;9.120;2023-11-21T02:13:23;9.50;92.50
210;DHT22;90;48.810;9.120;2023-11-21T02:15:50;9.50;92.70
210;DHT22;90;48.810;9.120;2023-11-21T02:18:19;9.50;92.60
210;DHT22;90;48.810;9.120;2023-11-21T02:20:47;9.50;92.50
210;DHT22;90;48.810;9.120;2023-11-21T02:23:15;9.50;92.20
210;DHT22;90;48.810;9.120;2023-11-21T02:25:43;9.50;92.30
210;DHT22;90;48.810;9.120;2023-11-21T02:28:10;9.50;92.40
210;DHT22;90;48.810;9.120;2023-11-21T02:30:38;9.60;92.10
210;DHT22;90;48.810;9.120;2023-11-21T02:33:05;9.60;92.20
210;DHT22;90;48.810;9.120;2023-11-21T02:35:32;9.60;92.20
210;DHT22;90;48.810;9.120;2023-11-21T02:38:00;9.60;91.80
210;DHT22;90;48.810;9.120;2023-11-21T02:40:29;9.60;91.70
210;DHT22;90;48.810;9.120;2023-11-21T02:42:56;9.60;91.70
210;DHT22;90;48.810;9.120;2023-11-21T02:45:24;9.60;91.40
210;DHT22;90;48.810;9.120;2023-11-21T02:47:51;9.60;91.40
210;DHT22;90;48.810;9.120;2023-11-21T02:50:22;9.50;91.60
210;DHT22;90;48.810;9.120;2023-11-21T02:52:49;9.50;91.80
210;DHT22;90;48.810;9.120;2023-11-21T02:55:15;9.60;91.60
210;DHT22;90;48.810;9.120;2023-11-21T02:57:43;9.70;91.30
210;DHT22;90;48.810;9.120;2023-11-21T03:00:11;9.70;91.10
210;DHT22;90;48.810;9.120;2023-11-21T03:02:38;9.70;90.70
210;DHT22;90;48.810;9.120;2023-11-21T03:05:06;9.80;90.60
210;DHT22;90;48.810;9.120;2023-11-21T03:07:34;9.80;90.40
210;DHT22;90;48.810;9.120;2023-11-21T03:10:01;9.80;90.10
210;DHT22;90;48.810;9.120;2023-11-21T03:12:28;9.80;90.10
210;DHT22;90;48.810;9.120;2023-11-21T03:14:57;9.80;90.30
210;DHT22;90;48.810;9.120;2023-11-21T03:17:24;9.70;90.60
210;DHT22;90;48.810;9.120;2023-11-21T03:19:51;9.80;90.30
210;DHT22;90;48.810;9.120;2023-11-21T03:22:18;9.60;90.90
210;DHT22;90;48.810;9.120;2023-11-21T03:24:45;9.70;91.20
210;DHT22;90;48.810;9.120;2023-11-21T03:27:12;9.60;90.90
210;DHT22;90;48.810;9.120;2023-11-21T03:29:38;9.70;91.10
210;DHT22;90;48.810;9.120;2023-11-21T03:32:07;9.70;90.90
210;DHT22;90;48.810;9.120;2023-11-21T03:34:34;9.60;91.00
210;DHT22;90;48.810;9.120;2023-11-21T03:37:01;9.60;91.20
210;DHT22;90;48.810;9.120;2023-11-21T03:39:28;9.60;91.10
210;DHT22;90;48.810;9.120;2023-11-21T03:41:55;9.70;91.10
210;DHT22;90;48.810;9.120;2023-11-21T03:44:22;9.60;91.20
210;DHT22;90;48.810;9.120;2023-11-21T03:46:48;9.60;91.20
210;DHT22;90;48.810;9.120;2023-11-21T03:49:16;9.60;91.60
210;DHT22;90;48.810;9.120;2023-11-21T03:51:43;9.50;91.20
210;DHT22;90;48.810;9.120;2023-11-21T03:54:10;9.50;91.50
210;DHT22;90;48.810;9.120;2023-11-21T03:56:36;9.40;91.70
210;DHT22;90;48.810;9.120;2023-11-21T03:59:03;9.40;91.70
210;DHT22;90;48.810;9.120;2023-11-21T04:01:30;9.50;91.70
210;DHT22;90;48.810;9.120;2023-11-21T04:03:56;9.40;91.80
210;DHT22;90;48.810;9.120;2023-11-21T04:06:25;9.40;92.00
210;DHT22;90;48.810;9.120;2023-11-21T04:08:51;9.40;92.30
210;DHT22;90;48.810;9.120;2023-11-21T04:11:18;9.40;92.00
210;DHT22;90;48.810;9.120;2023-11-21T04:13:45;9.40;92.30
210;DHT22;90;48.810;9.120;2023-11-21T04:16:12;9.40;92.70
210;DHT22;90;48.810;9.120;2023-11-21T04:18:39;9.30;93.20
210;DHT22;90;48.810;9.120;2023-11-21T04:21:06;9.30;93.20
210;DHT22;90;48.810;9.120;2023-11-21T04:23:35;9.30;93.60
210;DHT22;90;48.810;9.120;2023-11-21T04:26:02;9.30;93.60
210;DHT22;90;48.810;9.120;2023-11-21T04:28:28;9.40;93.40
210;DHT22;90;48.810;9.120;2023-11-21T04:30:56;9.40;93.10
210;DHT22;90;48.810;9.120;2023-11-21T04:33:22;9.40;93.00
210;DHT22;90;48.810;9.120;2023-11-21T04:35:51;9.40;92.70
210;DHT22;90;48.810;9.120;2023-11-21T04:38:17;9.40;92.90
210;DHT22;90;48.810;9.120;2023-11-21T04:40:45;9.40;92.50
210;DHT22;90;48.810;9.120;2023-11-21T04:43:12;9.40;92.50
210;DHT22;90;48.810;9.120;2023-11-21T04:45:39;9.30;92.40
210;DHT22;90;48.810;9.120;2023-11-21T04:48:07;9.40;92.40
210;DHT22;90;48.810;9.120;2023-11-21T04:50:33;9.50;92.00
210;DHT22;90;48.810;9.120;2023-11-21T04:53:00;9.50;91.50
210;DHT22;90;48.810;9.120;2023-11-21T04:55:27;9.40;91.60
210;DHT22;90;48.810;9.120;2023-11-21T04:57:55;9.40;91.40
210;DHT22;90;48.810;9.120;2023-11-21T05:00:22;9.50;91.30
210;DHT22;90;48.810;9.120;2023-11-21T05:02:49;9.40;91.20
210;DHT22;90;48.810;9.120;2023-11-21T05:05:16;9.50;91.10
210;DHT22;90;48.810;9.120;2023-11-21T05:07:42;9.50;91.00
210;DHT22;90;48.810;9.120;2023-11-21T05:10:09;9.50;90.80
210;DHT22;90;48.810;9.120;2023-11-21T05:12:37;9.50;90.80
210;DHT22;90;48.810;9.120;2023-11-21T05:15:07;9.40;91.00
210;DHT22;90;48.810;9.120;2023-11-21T05:17:35;9.40;91.10
210;DHT22;90;48.810;9.120;2023-11-21T05:20:02;9.40;91.20
210;DHT22;90;48.810;9.120;2023-11-21T05:22:33;9.50;91.50
210;DHT22;90;48.810;9.120;2023-11-21T05:25:00;9.60;90.50
210;DHT22;90;48.810;9.120;2023-11-21T05:27:28;9.50;90.40
210;DHT22;90;48.810;9.120;2023-11-21T05:29:55;9.50;90.70
210;DHT22;90;48.810;9.120;2023-11-21T05:32:23;9.40;90.90
210;DHT22;90;48.810;9.120;2023-11-21T05:34:50;9.40;91.30
210;DHT22;90;48.810;9.120;2023-11-21T05:37:17;9.40;91.40
210;DHT22;90;48.810;9.120;2023-11-21T05:39:44;9.50;91.20
210;DHT22;90;48.810;9.120;2023-11-21T05:42:11;9.50;91.00
210;DHT22;90;48.810;9.120;2023-11-21T05:44:38;9.40;90.90
210;DHT22;90;48.810;9.120;2023-11-21T05:47:07;9.40;91.30
210;DHT22;90;48.810;9.120;2023-11-21T05:49:35;9.30;91.70
210;DHT22;90;48.810;9.120;2023-11-21T05:52:02;9.40;91.80
210;DHT22;90;48.810;9.120;2023-11-21T05:54:30;9.30;91.80
210;DHT22;90;48.810;9.120;2023-11-21T05:56:57;9.40;91.80
210;DHT22;90;48.810;9.120;2023-11-21T05:59:24;9.40;91.80
210;DHT22;90;48.810;9.120;2023-11-21T06:01:51;9.40;91.70
210;DHT22;90;48.810;9.120;2023-11-21T06:04:18;9.30;92.10
210;DHT22;90;48.810;9.120;2023-11-21T06:06:51;9.30;92.40
210;DHT22;90;48.810;9.120;2023-11-21T06:09:17;9.30;92.10
210;DHT22;90;48.810;9.120;2023-11-21T06:11:44;9.30;92.10
210;DHT22;90;48.810;9.120;2023-11-21T06:14:11;9.40;91.70
210;DHT22;90;48.810;9.120;2023-11-21T06:16:37;9.40;91.70
210;DHT22;90;48.810;9.120;2023-11-21T06:19:05;9.50;91.50
210;DHT22;90;48.810;9.120;2023-11-21T06:21:32;9.40;91.60
210;DHT22;90;48.810;9.120;2023-11-21T06:24:00;9.40;91.90
210;DHT22;90;48.810;9.120;2023-11-21T06:26:27;9.40;91.90
210;DHT22;90;48.810;9.120;2023-11-21T06:28:54;9.40;91.70
210;DHT22;90;48.810;9.120;2023-11-21T06:31:22;9.30;92.50
210;DHT22;90;48.810;9.120;2023-11-21T06:33:49;9.30;92.90
210;DHT22;90;48.810;9.120;2023-11-21T06:36:17;9.40;92.20
210;DHT22;90;48.810;9.120;2023-11-21T06:38:44;9.50;91.60
210;DHT22;90;48.810;9.120;2023-11-21T06:41:13;9.50;91.30
210;DHT22;90;48.810;9.120;2023-11-21T06:43:40;9.60;91.70
210;DHT22;90;48.810;9.120;2023-11-21T06:46:10;9.60;91.10
210;DHT22;90;48.810;9.120;2023-11-21T06:48:40;9.60;91.20
210;DHT22;90;48.810;9.120;2023-11-21T06:51:06;9.50;91.40
210;DHT22;90;48.810;9.120;2023-11-21T06:53:33;9.50;91.90
210;DHT22;90;48.810;9.120;2023-11-21T06:56:00;9.60;92.50
210;DHT22;90;48.810;9.120;2023-11-21T06:58:28;9.60;91.60
210;DHT22;90;48.810;9.120;2023-11-21T07:00:55;9.60;91.40
210;DHT22;90;48.810;9.120;2023-11-21T07:03:23;9.60;91.50
210;DHT22;90;48.810;9.120;2023-11-21T07:05:51;9.60;91.60
210;DHT22;90;48.810;9.120;2023-11-21T07:08:18;9.60;91.50
210;DHT22;90;48.810;9.120;2023-11-21T07:10:45;9.60;91.70
210;DHT22;90;48.810;9.120;2023-11-21T07:13:12;9.60;91.80
210;DHT22;90;48.810;9.120;2023-11-21T07:15:40;9.60;91.50
210;DHT22;90;48.810;9.120;2023-11-21T07:18:07;9.60;91.40
210;DHT22;90;48.810;9.120;2023-11-21T07:20:34;9.60;91.10
210;DHT22;90;48.810;9.120;2023-11-21T07:23:01;9.60;91.20
210;DHT22;90;48.810;9.120;2023-11-21T07:25:29;9.70;91.00
210;DHT22;90;48.810;9.120;2023-11-21T07:27:56;9.70;91.00
210;DHT22;90;48.810;9.120;2023-11-21T07:30:22;10.20;96.80
210;DHT22;90;48.810;9.120;2023-11-21T07:32:50;10.30;96.20
210;DHT22;90;48.810;9.120;2023-11-21T07:35:17;10.10;92.60
210;DHT22;90;48.810;9.120;2023-11-21T07:37:44;10.00;91.70
210;DHT22;90;48.810;9.120;2023-11-21T07:40:12;10.00;91.10
210;DHT22;90;48.810;9.120;2023-11-21T07:42:39;9.90;90.70
210;DHT22;90;48.810;9.120;2023-11-21T07:45:08;9.90;90.70
210;DHT22;90;48.810;9.120;2023-11-21T07:47:35;9.90;90.60
210;DHT22;90;48.810;9.120;2023-11-21T07:50:07;9.80;90.80
210;DHT22;90;48.810;9.120;2023-11-21T07:52:33;9.80;91.20
210;DHT22;90;48.810;9.120;2023-11-21T07:55:00;9.70;91.30
210;DHT22;90;48.810;9.120;2023-11-21T07:57:27;9.70;91.40
210;DHT22;90;48.810;9.120;2023-11-21T07:59:53;9.70;91.40
210;DHT22;90;48.810;9.120;2023-11-21T08:02:20;9.70;91.50
210;DHT22;90;48.810;9.120;2023-11-21T08:04:47;9.70;91.50
210;DHT22;90;48.810;9.120;2023-11-21T08:07:17;9.70;91.30
210;DHT22;90;48.810;9.120;2023-11-21T08:09:43;9.70;91.50
210;DHT22;90;48.810;9.120;2023-11-21T08:12:12;9.70;91.30
210;DHT22;90;48.810;9.120;2023-11-21T08:14:38;9.60;91.90
210;DHT22;90;48.810;9.120;2023-11-21T08:17:06;9.70;92.10
210;DHT22;90;48.810;9.120;2023-11-21T08:19:35;9.70;92.20
210;DHT22;90;48.810;9.120;2023-11-21T08:22:02;9.80;92.10
210;DHT22;90;48.810;9.120;2023-11-21T08:24:30;9.80;91.80
210;DHT22;90;48.810;9.120;2023-11-21T08:26:57;9.90;91.50
210;DHT22;90;48.810;9.120;2023-11-21T08:29:24;9.90;91.30
210;DHT22;90;48.810;9.120;2023-11-21T08:31:52;10.00;90.90
210;DHT22;90;48.810;9.120;2023-11-21T08:34:19;10.00;91.00
210;DHT22;90;48.810;9.120;2023-11-21T08:36:45;10.00;90.90
210;DHT22;90;48.810;9.120;2023-11-21T08:39:12;10.10;91.00
210;DHT22;90;48.810;9.120;2023-11-21T08:41:43;10.20;91.00
210;DHT22;90;48.810;9.120;2023-11-21T08:44:10;10.20;91.20
210;DHT22;90;48.810;9.120;2023-11-21T08:46:36;10.30;91.20
210;DHT22;90;48.810;9.120;2023-11-21T08:49:04;10.30;91.20
210;DHT22;90;48.810;9.120;2023-11-21T08:51:31;10.40;91.20
210;DHT22;90;48.810;9.120;2023-11-21T08:53:58;10.40;90.90
210;DHT22;90;48.810;9.120;2023-11-21T08:56:26;10.30;90.80
210;DHT22;90;48.810;9.120;2023-11-21T08:58:54;10.30;91.30
210;DHT22;90;48.810;9.120;2023-11-21T09:01:22;10.30;91.90
210;DHT22;90;48.810;9.120;2023-11-21T09:03:50;10.30;92.00
210;DHT22;90;48.810;9.120;2023-11-21T09:06:17;10.30;92.20
210;DHT22;90;48.810;9.120;2023-11-21T09:08:43;10.40;92.00
210;DHT22;90;48.810;9.120;2023-11-21T09:11:10;10.30;91.70
210;DHT22;90;48.810;9.120;2023-11-21T09:13:37;10.30;91.80
210;DHT22;90;48.810;9.120;2023-11-21T09:16:05;10.20;91.90
210;DHT22;90;48.810;9.120;2023-11-21T09:18:32;10.20;92.00
210;DHT22;90;48.810;9.120;2023-11-21T09:20:59;10.20;92.00
210;DHT22;90;48.810;9.120;2023-11-21T09:23:26;10.20;92.20
210;DHT22;90;48.810;9.120;2023-11-21T09:25:53;10.20;92.30
210;DHT22;90;48.810;9.120;2023-11-21T09:28:22;10.20;92.40
210;DHT22;90;48.810;9.120;2023-11-21T09:30:49;10.30;92.30
210;DHT22;90;48.810;9.120;2023-11-21T09:33:17;10.30;92.10
210;DHT22;90;48.810;9.120;2023-11-21T09:35:44;10.30;92.00
210;DHT22;90;48.810;9.120;2023-11-21T09:38:11;10.30;92.00
210;DHT22;90;48.810;9.120;2023-11-21T09:40:37;10.30;91.90
210;DHT22;90;48.810;9.120;2023-11-21T09:43:07;10.20;92.30
210;DHT22;90;48.810;9.120;2023-11-21T09:45:36;10.10;92.90
210;DHT22;90;48.810;9.120;2023-11-21T09:48:05;10.10;92.80
210;DHT22;90;48.810;9.120;2023-11-21T09:50:36;10.00;93.10
210;DHT22;90;48.810;9.120;2023-11-21T09:53:13;10.10;93.00
210;DHT22;90;48.810;9.120;2023-11-21T09:55:42;10.10;93.00
210;DHT22;90;48.810;9.120;2023-11-21T09:58:11;10.00;93.50
210;DHT22;90;48.810;9.120;2023-11-21T10:00:40;9.90;94.40
210;DHT22;90;48.810;9.120;2023-11-21T10:03:07;10.00;94.80
210;DHT22;90;48.810;9.120;2023-11-21T10:05:36;9.90;94.70
210;DHT22;90;48.810;9.120;2023-11-21T10:08:04;10.00;94.70
210;DHT22;90;48.810;9.120;2023-11-21T10:10:33;10.00;94.40
210;DHT22;90;48.810;9.120;2023-11-21T10:13:03;10.10;93.80
210;DHT22;90;48.810;9.120;2023-11-21T10:15:33;10.10;93.80
210;DHT22;90;48.810;9.120;2023-11-21T10:18:02;10.00;94.20
210;DHT22;90;48.810;9.120;2023-11-21T10:20:30;10.00;94.10
210;DHT22;90;48.810;9.120;2023-11-21T10:23:01;10.00;94.00
210;DHT22;90;48.810;9.120;2023-11-21T10:25:29;10.00;94.10
210;DHT22;90;48.810;9.120;2023-11-21T10:27:58;9.90;94.30
210;DHT22;90;48.810;9.120;2023-11-21T10:30:32;9.90;94.70
210;DHT22;90;48.810;9.120;2023-11-21T10:33:02;9.80;95.10
210;DHT22;90;48.810;9.120;2023-11-21T10:35:42;9.80;95.30
210;DHT22;90;48.810;9.120;2023-11-21T10:38:13;9.90;95.20
210;DHT22;90;48.810;9.120;2023-11-21T10:40:40;10.00;95.10
210;DHT22;90;48.810;9.120;2023-11-21T10:43:08;10.00;95.00
210;DHT22;90;48.810;9.120;2023-11-21T10:45:36;10.00;94.80
210;DHT22;90;48.810;9.120;2023-11-21T10:48:05;10.50;96.80
210;DHT22;90;48.810;9.120;2023-11-21T10:50:33;10.60;96.10
210;DHT22;90;48.810;9.120;2023-11-21T10:53:02;10.70;94.90
210;DHT22;90;48.810;9.120;2023-11-21T10:55:32;10.70;93.30
210;DHT22;90;48.810;9.120;2023-11-21T10:58:00;10.60;93.40
210;DHT22;90;48.810;9.120;2023-11-21T11:00:28;10.50;93.40
210;DHT22;90;48.810;9.120;2023-11-21T11:02:55;10.50;92.90
210;DHT22;90;48.810;9.120;2023-11-21T11:05:23;10.40;93.50
210;DHT22;90;48.810;9.120;2023-11-21T11:07:56;10.40;93.50
210;DHT22;90;48.810;9.120;2023-11-21T11:10:25;10.40;93.20
210;DHT22;90;48.810;9.120;2023-11-21T11:12:54;10.30;93.60
210;DHT22;90;48.810;9.120;2023-11-21T11:15:21;10.30;93.40
210;DHT22;90;48.810;9.120;2023-11-21T11:17:48;10.30;93.60
210;DHT22;90;48.810;9.120;2023-11-21T11:20:16;10.40;93.20
210;DHT22;90;48.810;9.120;2023-11-21T11:22:55;10.40;93.00
210;DHT22;90;48.810;9.120;2023-11-21T11:25:38;10.40;93.20
210;DHT22;90;48.810;9.120;2023-11-21T11:28:15;10.50;92.60
210;DHT22;90;48.810;9.120;2023-11-21T11:30:53;10.40;93.00
210;DHT22;90;48.810;9.120;2023-11-21T11:33:29;10.50;93.70
210;DHT22;90;48.810;9.120;2023-11-21T11:36:04;10.60;94.20
210;DHT22;90;48.810;9.120;2023-11-21T11:38:33;10.60;93.50
210;DHT22;90;48.810;9.120;2023-11-21T11:41:02;10.80;93.10
210;DHT22;90;48.810;9.120;2023-11-21T11:43:31;10.80;92.40
210;DHT22;90;48.810;9.120;2023-11-21T11:46:05;10.90;92.50
210;DHT22;90;48.810;9.120;2023-11-21T11:48:35;10.90;91.30
210;DHT22;90;48.810;9.120;2023-11-21T11:51:06;10.90;91.00
210;DHT22;90;48.810;9.120;2023-11-21T11:53:39;10.90;91.40
210;DHT22;90;48.810;9.120;2023-11-21T11:56:24;10.90;91.30
210;DHT22;90;48.810;9.120;2023-11-21T11:58:55;10.80;91.10
210;DHT22;90;48.810;9.120;2023-11-21T12:01:22;10.70;91.60
210;DHT22;90;48.810;9.120;2023-11-21T12:04:24;10.60;92.00
210;DHT22;90;48.810;9.120;2023-11-21T12:06:59;10.70;91.80
210;DHT22;90;48.810;9.120;2023-11-21T12:09:28;10.70;91.60
210;DHT22;90;48.810;9.120;2023-11-21T12:11:56;10.60;91.50
210;DHT22;90;48.810;9.120;2023-11-21T12:14:24;10.70;92.20
210;DHT22;90;48.810;9.120;2023-11-21T12:16:51;10.60;92.80
210;DHT22;90;48.810;9.120;2023-11-21T12:19:19;10.50;93.10
210;DHT22;90;48.810;9.120;2023-11-21T12:21:48;10.50;93.40
210;DHT22;90;48.810;9.120;2023-11-21T12:24:15;10.40;93.40
210;DHT22;90;48.810;9.120;2023-11-21T12:26:43;10.20;93.60
210;DHT22;90;48.810;9.120;2023-11-21T12:29:09;10.20;94.90
210;DHT22;90;48.810;9.120;2023-11-21T12:31:38;10.20;94.70
210;DHT22;90;48.810;9.120;2023-11-21T12:34:05;10.20;94.90
210;DHT22;90;48.810;9.120;2023-11-21T12:36:32;10.30;94.90
210;DHT22;90;48.810;9.120;2023-11-21T12:39:00;10.20;94.90
210;DHT22;90;48.810;9.120;2023-11-21T12:41:28;10.20;95.00
210;DHT22;90;48.810;9.120;2023-11-21T12:43:55;10.20;95.30
210;DHT22;90;48.810;9.120;2023-11-21T12:46:22;10.20;95.10
210;DHT22;90;48.810;9.120;2023-11-21T12:48:52;10.20;95.10
210;DHT22;90;48.810;9.120;2023-11-21T12:51:20;10.30;95.00
210;DHT22;90;48.810;9.120;2023-11-21T12:53:47;10.30;94.90
210;DHT22;90;48.810;9.120;2023-11-21T12:56:14;10.30;95.10
210;DHT22;90;48.810;9.120;2023-11-21T12:58:44;10.40;95.00
210;DHT22;90;48.810;9.120;2023-11-21T13:01:13;10.60;96.00
210;DHT22;90;48.810;9.120;2023-11-21T13:03:46;10.70;95.10
210;DHT22;90;48.810;9.120;2023-11-21T13:06:15;10.90;94.60
210;DHT22;90;48.810;9.120;2023-11-21T13:08:44;10.90;93.80
210;DHT22;90;48.810;9.120;2023-11-21T13:11:11;10.80;92.70
210;DHT22;90;48.810;9.120;2023-11-21T13:13:40;10.50;90.50
210;DHT22;90;48.810;9.120;2023-11-21T13:16:08;10.30;90.70
210;DHT22;90;48.810;9.120;2023-11-21T13:18:35;10.20;91.30
210;DHT22;90;48.810;9.120;2023-11-21T13:21:03;10.10;92.40
210;DHT22;90;48.810;9.120;2023-11-21T13:23:37;10.20;92.60
210;DHT22;90;48.810;9.120;2023-11-21T13:26:04;10.10;93.40
210;DHT22;90;48.810;9.120;2023-11-21T13:28:31;10.10;94.20
210;DHT22;90;48.810;9.120;2023-11-21T13:30:58;10.00;94.60
210;DHT22;90;48.810;9.120;2023-11-21T13:33:28;10.00;95.20
210;DHT22;90;48.810;9.120;2023-11-21T13:35:56;10.10;94.90
210;DHT22;90;48.810;9.120;2023-11-21T13:38:23;10.10;94.70
210;DHT22;90;48.810;9.120;2023-11-21T13:40:52;10.20;94.40
210;DHT22;90;48.810;9.120;2023-11-21T13:43:20;10.30;94.40
210;DHT22;90;48.810;9.120;2023-11-21T13:45:49;10.20;94.60
210;DHT22;90;48.810;9.120;2023-11-21T13:48:21;10.10;95.70
210;DHT22;90;48.810;9.120;2023-11-21T13:50:54;10.10;95.80
210;DHT22;90;48.810;9.120;2023-11-21T13:53:24;10.20;95.80
210;DHT22;90;48.810;9.120;2023-11-21T13:55:53;10.20;95.80
210;DHT22;90;48.810;9.120;2023-11-21T13:58:22;10.10;96.20
210;DHT22;90;48.810;9.120;2023-11-21T14:01:00;10.20;96.00
210;DHT22;90;48.810;9.120;2023-11-21T14:03:31;10.20;95.70
210;DHT22;90;48.810;9.120;2023-11-21T14:06:05;10.30;95.40
210;DHT22;90;48.810;9.120;2023-11-21T14:08:39;10.30;95.80
210;DHT22;90;48.810;9.120;2023-11-21T14:11:08;10.30;95.50
210;DHT22;90;48.810;9.120;2023-11-21T14:13:36;10.30;95.50
210;DHT22;90;48.810;9.120;2023-11-21T14:16:05;10.20;95.90
210;DHT22;90;48.810;9.120;2023-11-21T14:18:32;10.20;95.90
210;DHT22;90;48.810;9.120;2023-11-21T14:21:04;10.20;95.70
210;DHT22;90;48.810;9.120;2023-11-21T14:23:31;10.20;95.80
210;DHT22;90;48.810;9.120;2023-11-21T14:26:01;10.20;95.50
210;DHT22;90;48.810;9.120;2023-11-21T14:28:29;10.10;96.00
210;DHT22;90;48.810;9.120;2023-11-21T14:30:56;10.10;96.00
210;DHT22;90;48.810;9.120;2023-11-21T14:33:23;10.20;96.00
210;DHT22;90;48.810;9.120;2023-11-21T14:35:49;10.10;95.60
210;DHT22;90;48.810;9.120;2023-11-21T14:38:16;10.10;95.80
210;DHT22;90;48.810;9.120;2023-11-21T14:40:44;10.10;95.80
210;DHT22;90;48.810;9.120;2023-11-21T14:43:13;10.00;96.00
210;DHT22;90;48.810;9.120;2023-11-21T14:45:41;9.90;96.20
210;DHT22;90;48.810;9.120;2023-11-21T14:48:08;10.00;96.10
210;DHT22;90;48.810;9.120;2023-11-21T14:50:42;10.00;96.00
210;DHT22;90;48.810;9.120;2023-11-21T14:53:22;10.00;95.90
210;DHT22;90;48.810;9.120;2023-11-21T14:56:09;9.90;95.50
210;DHT22;90;48.810;9.120;2023-11-21T14:58:35;9.90;95.80
210;DHT22;90;48.810;9.120;2023-11-21T15:01:05;9.90;95.70
210;DHT22;90;48.810;9.120;2023-11-21T15:03:31;9.90;95.70
210;DHT22;90;48.810;9.120;2023-11-21T15:06:13;9.90;95.40
210;DHT22;90;48.810;9.120;2023-11-21T15:08:48;9.90;95.20
210;DHT22;90;48.810;9.120;2023-11-21T15:11:19;9.90;95.30
210;DHT22;90;48.810;9.120;2023-11-21T15:13:44;9.80;95.40
210;DHT22;90;48.810;9.120;2023-11-21T15:16:15;9.80;95.90
210;DHT22;90;48.810;9.120;2023-11-21T15:18:42;9.70;96.10
210;DHT22;90;48.810;9.120;2023-11-21T15:21:08;9.80;96.00
210;DHT22;90;48.810;9.120;2023-11-21T15:23:37;9.90;95.70
210;DHT22;90;48.810;9.120;2023-11-21T15:26:06;9.90;96.10
210;DHT22;90;48.810;9.120;2023-11-21T15:28:34;9.90;96.40
210;DHT22;90;48.810;9.120;2023-11-21T15:31:01;9.90;96.70
210;DHT22;90;48.810;9.120;2023-11-21T15:33:29;10.00;96.40
210;DHT22;90;48.810;9.120;2023-11-21T15:35:56;10.00;96.10
210;DHT22;90;48.810;9.120;2023-11-21T15:38:23;10.00;96.40
210;DHT22;90;48.810;9.120;2023-11-21T15:40:50;9.90;96.80
210;DHT22;90;48.810;9.120;2023-11-21T15:43:16;9.90;96.80
210;DHT22;90;48.810;9.120;2023-11-21T15:45:43;9.90;96.80
210;DHT22;90;48.810;9.120;2023-11-21T15:48:12;9.90;96.70
210;DHT22;90;48.810;9.120;2023-11-21T15:50:43;10.00;96.40
210;DHT22;90;48.810;9.120;2023-11-21T15:53:09;9.90;96.30
210;DHT22;90;48.810;9.120;2023-11-21T15:55:37;9.90;96.30
210;DHT22;90;48.810;9.120;2023-11-21T15:58:07;9.80;96.30
210;DHT22;90;48.810;9.120;2023-11-21T16:00:34;9.80;96.60
210;DHT22;90;48.810;9.120;2023-11-21T16:03:02;10.00;96.80
210;DHT22;90;48.810;9.120;2023-11-21T16:05:29;10.00;96.80
210;DHT22;90;48.810;9.120;2023-11-21T16:07:58;9.90;96.00
210;DHT22;90;48.810;9.120;2023-11-21T16:10:24;9.90;96.10
210;DHT22;90;48.810;9.120;2023-11-21T16:12:51;10.00;96.00
210;DHT22;90;48.810;9.120;2023-11-21T16:15:18;9.90;96.00
210;DHT22;90;48.810;9.120;2023-11-21T16:17:45;9.90;95.90
210;DHT22;90;48.810;9.120;2023-11-21T16:20:12;9.80;96.00
210;DHT22;90;48.810;9.120;2023-11-21T16:22:40;9.90;96.30
210;DHT22;90;48.810;9.120;2023-11-21T16:25:09;10.00;95.50
210;DHT22;90;48.810;9.120;2023-11-21T16:27:38;9.90;95.50
210;DHT22;90;48.810;9.120;2023-11-21T16:30:06;9.90;95.50
210;DHT22;90;48.810;9.120;2023-11-21T16:32:35;9.90;95.30
210;DHT22;90;48.810;9.120;2023-11-21T16:35:02;9.90;95.30
210;DHT22;90;48.810;9.120;2023-11-21T16:37:29;9.80;95.70
210;DHT22;90;48.810;9.120;2023-11-21T16:39:56;9.70;95.70
210;DHT22;90;48.810;9.120;2023-11-21T16:42:25;9.80;95.40
210;DHT22;90;48.810;9.120;2023-11-21T16:44:53;9.80;95.40
210;DHT22;90;48.810;9.120;2023-11-21T16:47:20;9.90;95.10
210;DHT22;90;48.810;9.120;2023-11-21T16:49:48;9.90;94.80
210;DHT22;90;48.810;9.120;2023-11-21T16:52:15;9.70;95.20
210;DHT22;90;48.810;9.120;2023-11-21T16:54:42;9.70;95.20
210;DHT22;90;48.810;9.120;2023-11-21T16:57:09;9.70;95.50
210;DHT22;90;48.810;9.120;2023-11-21T16:59:37;9.80;95.00
210;DHT22;90;48.810;9.120;2023-11-21T17:02:04;9.70;94.80
210;DHT22;90;48.810;9.120;2023-11-21T17:04:30;9.70;94.90
210;DHT22;90;48.810;9.120;2023-11-21T17:06:59;9.70;94.80
210;DHT22;90;48.810;9.120;2023-11-21T17:09:26;9.60;95.00